Time;durP1;ratioP1;P1;durP2;ratioP2;P2;SDS_P1;SDS_P2;PMS_P1;PMS_P2;Temp;Humidity;BMP_temperature;BMP_pressure;BME280_temperature;BME280_humidity;BME280_pressure;Samples;Min_cycle;Max_cycle;Signal;HPM_P1;HPM_P2
2023/04/10 00:02:12;;;;;;;26.30;21.30;;;7.80;99.90;;;;;;5029838;28;20483;-67
2023/04/10 00:04:40;;;;;;;25.37;20.50;;;7.70;99.90;;;;;;5029606;28;20560;-66
2023/04/10 00:07:10;;;;;;;26.07;20.87;;;7.70;99.90;;;;;;5028248;28;20471;-67
2023/04/10 00:09:38;;;;;;;28.53;21.30;;;7.70;99.90;;;;;;5028396;28;20868;-67
2023/04/10 00:12:06;;;;;;;23.40;20.00;;;7.70;99.90;;;;;;5029992;28;20470;-67
2023/04/10 00:14:34;;;;;;;27.03;22.00;;;7.70;99.90;;;;;;5030862;28;20463;-66
2023/04/10 00:17:03;;;;;;;25.33;21.50;;;7.60;99.90;;;;;;5030212;28;20471;-67
2023/04/10 00:19:30;;;;;;;24.87;21.33;;;7.60;99.90;;;;;;5029320;28;20491;-67
2023/04/10 00:21:58;;;;;;;25.70;20.33;;;7.60;99.90;;;;;;5028111;28;23280;-67
2023/04/10 00:24:28;;;;;;;25.33;20.10;;;7.60;99.90;;;;;;5030041;28;20467;-67
2023/04/10 00:26:56;;;;;;;25.10;21.07;;;7.60;99.90;;;;;;5030043;28;20475;-68
2023/04/10 00:29:24;;;;;;;27.10;20.90;;;7.60;99.90;;;;;;5048523;28;21028;-67
2023/04/10 00:31:52;;;;;;;26.20;20.03;;;7.60;99.90;;;;;;5029514;28;20545;-66
2023/04/10 00:34:20;;;;;;;25.53;21.50;;;7.60;99.90;;;;;;5029982;28;20475;-67
2023/04/10 00:36:48;;;;;;;25.63;21.63;;;7.50;99.90;;;;;;5026526;28;20772;-67
2023/04/10 00:39:16;;;;;;;24.63;21.60;;;7.60;99.90;;;;;;5029389;28;20491;-67
2023/04/10 00:41:45;;;;;;;25.40;21.13;;;7.60;99.90;;;;;;5029446;28;20459;-67
2023/04/10 00:44:13;;;;;;;26.80;21.47;;;7.50;99.90;;;;;;5030501;28;20472;-67
2023/04/10 00:46:41;;;;;;;26.10;22.10;;;7.50;99.90;;;;;;5029911;28;20467;-67
2023/04/10 00:49:09;;;;;;;25.37;21.43;;;7.50;99.90;;;;;;5027034;28;20479;-67
2023/04/10 00:51:37;;;;;;;24.90;21.30;;;7.50;99.90;;;;;;5028691;28;20487;-67
2023/04/10 00:54:06;;;;;;;24.00;20.40;;;7.50;99.90;;;;;;5027081;28;20478;-66
2023/04/10 00:56:34;;;;;;;24.27;19.83;;;7.50;99.90;;;;;;5027896;28;20475;-66
2023/04/10 00:59:03;;;;;;;23.93;20.20;;;7.50;99.90;;;;;;5026937;28;20510;-67
2023/04/10 01:01:34;;;;;;;25.00;21.47;;;7.50;99.90;;;;;;5029034;28;20464;-67
2023/04/10 01:04:02;;;;;;;24.03;20.67;;;7.50;99.90;;;;;;5029541;28;21213;-67
2023/04/10 01:06:42;;;;;;;28.70;21.77;;;7.50;99.90;;;;;;5027353;28;20472;-67
2023/04/10 01:09:15;;;;;;;26.40;20.97;;;7.40;99.90;;;;;;5029414;28;20482;-67
2023/04/10 01:11:52;;;;;;;26.97;20.60;;;7.40;99.90;;;;;;5028488;28;20497;-67
2023/04/10 01:14:30;;;;;;;29.87;21.63;;;7.40;99.90;;;;;;5027597;28;20471;-67
2023/04/10 01:17:05;;;;;;;27.67;21.57;;;7.40;99.90;;;;;;5027146;28;20575;-67
2023/04/10 01:19:59;;;;;;;25.27;20.47;;;7.40;99.90;;;;;;5028086;28;20505;-69
2023/04/10 01:22:33;;;;;;;26.83;22.53;;;7.40;99.90;;;;;;5025097;28;20877;-67
2023/04/10 01:25:15;;;;;;;25.57;20.87;;;7.30;99.90;;;;;;5025605;28;20467;-67
2023/04/10 01:27:52;;;;;;;27.93;21.60;;;7.30;99.90;;;;;;5028169;28;20478;-67
2023/04/10 01:30:23;;;;;;;23.47;20.50;;;7.30;99.90;;;;;;5028900;28;20499;-67
2023/04/10 01:32:56;;;;;;;24.83;19.90;;;7.30;99.90;;;;;;5026114;28;20855;-67
2023/04/10 01:35:25;;;;;;;26.27;20.50;;;7.30;99.90;;;;;;5028194;28;20468;-67
2023/04/10 01:37:54;;;;;;;27.97;21.80;;;7.30;99.90;;;;;;5026836;28;20672;-67
2023/04/10 01:40:26;;;;;;;25.70;21.77;;;7.30;99.90;;;;;;5027352;28;20505;-67
2023/04/10 01:42:56;;;;;;;24.77;21.17;;;7.30;99.90;;;;;;5025236;28;20491;-67
2023/04/10 01:45:28;;;;;;;25.47;20.60;;;7.30;99.90;;;;;;5028517;28;20861;-67
2023/04/10 01:47:56;;;;;;;27.33;20.90;;;7.30;99.90;;;;;;5025408;28;20566;-67
2023/04/10 01:50:27;;;;;;;26.97;21.93;;;7.20;99.90;;;;;;5028424;28;21086;-67
2023/04/10 01:52:56;;;;;;;24.53;20.93;;;7.20;99.90;;;;;;5024130;28;20475;-66
2023/04/10 01:55:25;;;;;;;23.80;19.80;;;7.20;99.90;;;;;;5028770;28;20467;-67
2023/04/10 01:57:54;;;;;;;27.70;22.03;;;7.20;99.90;;;;;;5025583;28;20844;-67
2023/04/10 02:00:23;;;;;;;26.80;20.67;;;7.20;99.90;;;;;;5025766;28;20597;-67
2023/04/10 02:02:53;;;;;;;26.50;20.40;;;7.20;99.90;;;;;;5023711;28;20990;-67
2023/04/10 02:05:22;;;;;;;24.33;20.13;;;7.20;99.90;;;;;;5027120;28;20471;-67
2023/04/10 02:07:57;;;;;;;26.73;20.70;;;7.20;99.90;;;;;;5024167;28;20475;-67
2023/04/10 02:10:31;;;;;;;24.87;20.17;;;7.20;99.90;;;;;;5029341;28;20498;-67
2023/04/10 02:13:05;;;;;;;27.80;20.10;;;7.20;99.90;;;;;;5027749;28;20474;-66
2023/04/10 02:15:34;;;;;;;26.70;21.33;;;7.20;99.90;;;;;;5025422;28;20991;-67
2023/04/10 02:18:05;;;;;;;29.33;21.00;;;7.20;99.90;;;;;;5027352;28;20487;-67
2023/04/10 02:20:34;;;;;;;24.80;20.17;;;7.20;99.90;;;;;;5018256;28;20503;-66
2023/04/10 02:23:04;;;;;;;27.33;20.60;;;7.20;99.90;;;;;;5016081;28;20471;-67
2023/04/10 02:25:32;;;;;;;25.90;20.57;;;7.20;99.90;;;;;;5027607;28;20467;-66
2023/04/10 02:28:04;;;;;;;26.37;20.77;;;7.10;99.90;;;;;;5026864;28;20544;-68
2023/04/10 02:30:32;;;;;;;24.40;20.80;;;7.20;99.90;;;;;;5017940;28;20483;-67
2023/04/10 02:33:00;;;;;;;26.90;20.97;;;7.20;99.90;;;;;;5025706;28;20597;-67
2023/04/10 02:35:29;;;;;;;24.60;21.60;;;7.10;99.90;;;;;;5013807;28;20479;-67
2023/04/10 02:37:57;;;;;;;24.80;20.80;;;7.10;99.90;;;;;;5018522;28;21016;-67
2023/04/10 02:40:25;;;;;;;28.07;21.23;;;7.10;99.90;;;;;;5027790;28;20495;-67
2023/04/10 02:42:53;;;;;;;26.73;22.50;;;7.10;99.90;;;;;;5018252;28;20467;-68
2023/04/10 02:45:21;;;;;;;26.23;20.60;;;7.10;99.90;;;;;;5024482;28;20482;-67
2023/04/10 02:47:49;;;;;;;26.57;21.50;;;7.10;99.90;;;;;;5027604;28;20471;-67
2023/04/10 02:50:17;;;;;;;26.23;21.73;;;7.10;99.90;;;;;;5018483;28;20507;-67
2023/04/10 02:52:47;;;;;;;27.30;22.30;;;7.10;99.90;;;;;;5027894;28;20490;-67
2023/04/10 02:55:15;;;;;;;26.47;21.27;;;7.10;99.90;;;;;;5018314;28;20471;-67
2023/04/10 02:57:43;;;;;;;24.93;20.17;;;7.10;99.90;;;;;;5026902;28;20471;-67
2023/04/10 03:00:12;;;;;;;25.30;20.77;;;7.10;99.90;;;;;;5026139;28;20483;-67
2023/04/10 03:02:40;;;;;;;26.47;21.03;;;7.10;99.90;;;;;;5021257;28;20459;-68
2023/04/10 03:05:09;;;;;;;25.63;20.93;;;7.10;99.90;;;;;;5017804;28;20830;-67
2023/04/10 03:07:37;;;;;;;28.30;20.97;;;7.10;99.90;;;;;;5027120;28;20537;-67
2023/04/10 03:10:07;;;;;;;26.47;21.70;;;7.10;99.90;;;;;;5023755;28;21035;-68
2023/04/10 03:12:35;;;;;;;26.00;21.30;;;7.10;99.90;;;;;;5021148;28;20491;-67
2023/04/10 03:15:03;;;;;;;25.30;20.50;;;7.00;99.90;;;;;;5019314;28;20467;-67
2023/04/10 03:17:31;;;;;;;24.80;20.40;;;7.00;99.90;;;;;;5028128;28;20474;-67
2023/04/10 03:19:59;;;;;;;25.27;21.00;;;7.00;99.90;;;;;;5022351;28;20606;-67
2023/04/10 03:22:30;;;;;;;25.73;19.73;;;7.00;99.90;;;;;;5022207;28;20466;-67
2023/04/10 03:24:58;;;;;;;27.77;22.43;;;7.00;99.90;;;;;;5023361;28;20545;-67
2023/04/10 03:27:30;;;;;;;26.77;20.80;;;7.00;99.90;;;;;;5028935;28;20481;-67
2023/04/10 03:29:59;;;;;;;26.20;20.47;;;7.00;99.90;;;;;;5017095;28;20553;-67
2023/04/10 03:32:29;;;;;;;25.60;20.30;;;7.00;99.90;;;;;;5025998;28;21004;-71
2023/04/10 03:34:58;;;;;;;29.20;21.43;;;7.00;99.90;;;;;;5026513;28;20924;-67
2023/04/10 03:37:27;;;;;;;27.87;21.57;;;7.00;99.90;;;;;;5018355;28;20886;-67
2023/04/10 03:39:55;;;;;;;27.10;22.37;;;7.00;99.90;;;;;;5020277;28;20496;-66
2023/04/10 03:42:23;;;;;;;28.30;21.20;;;6.90;99.90;;;;;;5027972;28;20479;-68
2023/04/10 03:44:52;;;;;;;27.63;21.97;;;6.90;99.90;;;;;;5018677;28;21078;-68
2023/04/10 03:47:20;;;;;;;25.00;20.80;;;6.90;99.90;;;;;;5025226;28;20467;-67
2023/04/10 03:49:48;;;;;;;24.50;21.20;;;6.90;99.90;;;;;;5016643;28;20506;-68
2023/04/10 03:52:16;;;;;;;25.63;20.93;;;6.90;99.90;;;;;;5018250;28;20491;-66
2023/04/10 03:54:44;;;;;;;29.27;21.53;;;6.90;99.90;;;;;;5026062;28;20483;-67
2023/04/10 03:57:12;;;;;;;27.17;22.07;;;6.90;99.90;;;;;;5019809;28;20477;-67
2023/04/10 03:59:40;;;;;;;27.47;21.47;;;7.00;99.90;;;;;;5025484;28;20494;-67
2023/04/10 04:02:10;;;;;;;27.50;21.83;;;7.00;99.90;;;;;;5022166;28;20507;-66
2023/04/10 04:04:38;;;;;;;24.30;20.27;;;6.90;99.90;;;;;;5022474;28;20478;-67
2023/04/10 04:07:07;;;;;;;26.57;20.93;;;6.90;99.90;;;;;;5038399;28;21026;-66
2023/04/10 04:09:35;;;;;;;27.00;21.57;;;6.90;99.90;;;;;;5020155;28;20502;-67
2023/04/10 04:12:03;;;;;;;28.03;22.03;;;6.90;99.90;;;;;;5018541;28;20501;-67
2023/04/10 04:14:31;;;;;;;25.60;21.17;;;6.90;99.90;;;;;;5029403;28;20470;-67
2023/04/10 04:16:59;;;;;;;28.90;23.47;;;6.90;99.90;;;;;;5038680;28;20474;-67
2023/04/10 04:19:29;;;;;;;24.00;20.13;;;6.90;99.90;;;;;;5022491;28;20537;-66
2023/04/10 04:21:59;;;;;;;27.87;22.17;;;6.80;99.90;;;;;;5031153;28;20482;-66
2023/04/10 04:24:27;;;;;;;26.00;20.40;;;6.80;99.90;;;;;;5025263;28;20537;-67
2023/04/10 04:26:55;;;;;;;29.33;21.67;;;6.80;99.90;;;;;;5028069;28;20477;-67
2023/04/10 04:29:23;;;;;;;28.10;21.50;;;6.80;99.90;;;;;;5032869;28;20494;-69
2023/04/10 04:31:51;;;;;;;29.73;21.03;;;6.80;99.90;;;;;;5024291;28;20477;-67
2023/04/10 04:34:19;;;;;;;27.97;21.07;;;6.80;99.90;;;;;;5041177;28;20466;-68
2023/04/10 04:36:48;;;;;;;25.00;21.23;;;6.80;99.90;;;;;;5051191;28;20837;-67
2023/04/10 04:39:16;;;;;;;28.07;21.50;;;6.80;99.90;;;;;;5030037;28;20502;-67
2023/04/10 04:41:44;;;;;;;27.63;21.00;;;6.80;99.90;;;;;;5036010;28;20471;-66
2023/04/10 04:44:12;;;;;;;26.90;21.13;;;6.80;99.90;;;;;;5027745;28;20484;-67
2023/04/10 04:46:40;;;;;;;30.53;22.33;;;6.80;99.90;;;;;;5034466;28;20482;-66
2023/04/10 04:49:11;;;;;;;26.70;21.20;;;6.70;99.90;;;;;;5035376;28;20564;-66
2023/04/10 04:51:39;;;;;;;27.67;21.70;;;6.80;99.90;;;;;;5027835;28;21080;-67
2023/04/10 04:54:09;;;;;;;26.60;21.57;;;6.70;99.90;;;;;;5037836;28;20497;-67
2023/04/10 04:56:37;;;;;;;28.37;22.33;;;6.70;99.90;;;;;;5032864;28;20494;-66
2023/04/10 04:59:05;;;;;;;24.07;20.57;;;6.70;99.90;;;;;;5024478;28;20978;-66
2023/04/10 05:01:32;;;;;;;28.60;21.80;;;6.80;99.90;;;;;;5028741;28;20474;-66
2023/04/10 05:04:01;;;;;;;26.00;21.00;;;6.70;99.90;;;;;;5024428;28;20483;-66
2023/04/10 05:06:30;;;;;;;25.70;20.40;;;6.80;99.90;;;;;;5024990;28;20479;-66
2023/04/10 05:08:58;;;;;;;27.30;21.60;;;6.80;99.90;;;;;;5026602;28;20486;-67
2023/04/10 05:11:27;;;;;;;25.83;20.53;;;6.80;99.90;;;;;;5023452;28;20562;-67
2023/04/10 05:13:55;;;;;;;27.53;21.57;;;6.80;99.90;;;;;;5027915;28;20492;-67
2023/04/10 05:16:23;;;;;;;28.50;21.97;;;6.80;99.90;;;;;;5019739;28;20839;-67
2023/04/10 05:18:51;;;;;;;27.57;21.97;;;6.80;99.90;;;;;;5028242;28;20490;-68
2023/04/10 05:21:20;;;;;;;28.50;22.10;;;6.90;99.90;;;;;;5030687;28;20471;-67
2023/04/10 05:23:47;;;;;;;31.07;23.00;;;6.90;99.90;;;;;;5021638;28;20467;-66
2023/04/10 05:26:15;;;;;;;29.20;21.70;;;6.90;99.90;;;;;;5027255;28;20815;-67
2023/04/10 05:28:45;;;;;;;26.23;21.13;;;6.90;99.90;;;;;;5029960;28;20491;-65
2023/04/10 05:31:13;;;;;;;27.03;21.27;;;6.90;99.90;;;;;;5021015;28;20488;-66
2023/04/10 05:33:41;;;;;;;28.23;20.90;;;7.00;99.90;;;;;;5028282;28;20500;-66
2023/04/10 05:36:10;;;;;;;26.47;21.40;;;7.00;99.90;;;;;;5025108;28;20590;-67
2023/04/10 05:38:38;;;;;;;27.30;21.60;;;7.00;99.90;;;;;;5028162;28;20479;-66
2023/04/10 05:41:06;;;;;;;27.30;20.83;;;7.10;99.90;;;;;;5017559;28;20491;-67
2023/04/10 05:43:34;;;;;;;27.43;20.53;;;7.10;99.90;;;;;;5019784;28;20463;-68
2023/04/10 05:46:03;;;;;;;26.40;20.70;;;7.10;99.90;;;;;;5029182;28;20475;-66
2023/04/10 05:48:31;;;;;;;30.00;21.13;;;7.20;99.90;;;;;;5027890;28;20545;-67
2023/04/10 05:50:59;;;;;;;25.63;20.63;;;7.20;99.90;;;;;;5018429;28;20530;-67
2023/04/10 05:53:31;;;;;;;24.00;20.60;;;7.30;99.90;;;;;;5018832;28;20492;-67
2023/04/10 05:56:00;;;;;;;28.33;22.23;;;7.30;99.90;;;;;;5023760;28;20498;-66
2023/04/10 05:58:29;;;;;;;25.80;19.63;;;7.30;99.90;;;;;;5028082;28;21037;-66
2023/04/10 06:00:57;;;;;;;27.93;21.23;;;7.30;99.90;;;;;;5016690;28;20479;-66
2023/04/10 06:03:29;;;;;;;27.93;21.20;;;7.40;99.90;;;;;;5028279;28;20463;-66
2023/04/10 06:05:57;;;;;;;25.07;19.93;;;7.40;99.90;;;;;;5023991;28;21007;-67
2023/04/10 06:08:25;;;;;;;28.83;22.20;;;7.40;99.90;;;;;;5022385;28;20483;-66
2023/04/10 06:10:53;;;;;;;24.80;20.20;;;7.40;99.90;;;;;;5029168;28;20521;-67
2023/04/10 06:13:21;;;;;;;26.70;21.70;;;7.40;99.90;;;;;;5019313;28;20514;-66
2023/04/10 06:15:49;;;;;;;25.80;21.37;;;7.40;99.90;;;;;;5022561;28;20481;-66
2023/04/10 06:18:17;;;;;;;27.80;21.40;;;7.40;99.90;;;;;;5025048;28;20483;-66
2023/04/10 06:20:46;;;;;;;27.17;20.47;;;7.50;99.90;;;;;;5015131;28;20486;-68
2023/04/10 06:23:14;;;;;;;25.40;20.90;;;7.50;99.90;;;;;;5029258;28;20526;-66
2023/04/10 06:25:43;;;;;;;26.57;21.00;;;7.50;99.90;;;;;;5027413;28;20593;-66
2023/04/10 06:28:11;;;;;;;26.70;21.60;;;7.60;99.90;;;;;;5019989;28;20491;-67
2023/04/10 06:30:39;;;;;;;28.77;22.03;;;7.60;99.90;;;;;;5027204;28;20491;-66
2023/04/10 06:33:07;;;;;;;28.07;21.90;;;7.60;99.90;;;;;;5018599;28;20487;-66
2023/04/10 06:35:36;;;;;;;26.43;20.67;;;7.70;99.90;;;;;;5027484;28;20801;-66
2023/04/10 06:38:05;;;;;;;26.80;20.73;;;7.70;99.90;;;;;;5030609;28;21000;-67
2023/04/10 06:40:33;;;;;;;26.77;20.80;;;7.80;99.90;;;;;;5044530;28;20498;-69
2023/04/10 06:43:01;;;;;;;25.10;20.57;;;7.80;99.90;;;;;;5038081;28;20459;-67
2023/04/10 06:45:29;;;;;;;28.43;22.13;;;7.80;99.90;;;;;;5020473;28;20471;-66
2023/04/10 06:47:57;;;;;;;24.30;21.03;;;7.90;99.90;;;;;;5021430;28;20495;-66
2023/04/10 06:50:25;;;;;;;26.43;22.07;;;7.90;99.90;;;;;;5028862;28;20499;-66
2023/04/10 06:52:55;;;;;;;25.77;21.60;;;7.90;99.90;;;;;;5019666;28;21749;-66
2023/04/10 06:55:24;;;;;;;26.00;21.40;;;8.00;99.90;;;;;;5028689;28;20463;-66
2023/04/10 06:57:52;;;;;;;26.57;20.83;;;8.00;99.90;;;;;;5026339;28;20487;-66
2023/04/10 07:00:20;;;;;;;25.63;20.97;;;8.10;99.90;;;;;;5015912;28;21086;-67
2023/04/10 07:02:49;;;;;;;24.93;21.17;;;8.10;99.90;;;;;;5028659;28;20467;-67
2023/04/10 07:05:17;;;;;;;23.80;19.80;;;8.20;99.90;;;;;;5023594;28;20471;-68
2023/04/10 07:07:46;;;;;;;25.17;20.27;;;8.20;99.90;;;;;;5019388;28;20467;-67
2023/04/10 07:10:14;;;;;;;25.17;21.10;;;8.30;99.90;;;;;;5027234;28;20936;-66
2023/04/10 07:12:43;;;;;;;26.73;20.90;;;8.30;99.90;;;;;;5018918;28;21045;-66
2023/04/10 07:15:12;;;;;;;24.07;20.30;;;8.30;99.90;;;;;;5023525;28;20894;-67
2023/04/10 07:17:40;;;;;;;25.47;21.57;;;8.40;99.90;;;;;;5027484;28;20493;-66
2023/04/10 07:20:09;;;;;;;26.23;21.97;;;8.40;99.90;;;;;;5016148;28;20497;-67
2023/04/10 07:22:37;;;;;;;24.90;20.80;;;8.50;99.90;;;;;;5025472;28;20499;-66
2023/04/10 07:25:06;;;;;;;27.33;21.60;;;8.50;99.90;;;;;;5030275;28;20478;-68
2023/04/10 07:27:34;;;;;;;24.93;21.20;;;8.60;99.90;;;;;;5019653;28;20468;-67
2023/04/10 07:30:05;;;;;;;23.63;20.60;;;8.70;99.90;;;;;;5028321;28;20550;-67
2023/04/10 07:32:33;;;;;;;25.53;20.37;;;8.70;99.90;;;;;;5023068;28;20479;-66
2023/04/10 07:35:02;;;;;;;23.50;20.47;;;8.80;99.90;;;;;;5025153;28;20487;-67
2023/04/10 07:37:30;;;;;;;25.70;21.80;;;8.80;99.90;;;;;;5018534;28;20980;-66
2023/04/10 07:39:58;;;;;;;25.77;22.20;;;8.90;99.90;;;;;;5028390;28;20499;-66
2023/04/10 07:42:26;;;;;;;22.03;19.70;;;9.00;99.90;;;;;;5022699;28;20468;-67
2023/04/10 07:44:54;;;;;;;23.70;19.87;;;9.00;99.90;;;;;;5038584;28;20949;-67
2023/04/10 07:47:23;;;;;;;24.37;20.80;;;9.10;99.90;;;;;;5026720;28;20846;-66
2023/04/10 07:49:51;;;;;;;22.83;19.50;;;9.20;99.90;;;;;;5021214;28;20501;-67
2023/04/10 07:52:20;;;;;;;23.70;20.40;;;9.30;99.90;;;;;;5029639;28;20477;-66
2023/04/10 07:54:48;;;;;;;22.93;20.43;;;9.40;99.90;;;;;;5031808;28;20483;-68
2023/04/10 07:57:16;;;;;;;22.07;18.93;;;9.50;99.90;;;;;;5024766;28;20477;-66
2023/04/10 07:59:44;;;;;;;23.20;19.90;;;9.60;99.90;;;;;;5030268;28;20499;-67
2023/04/10 08:02:13;;;;;;;21.40;19.20;;;9.60;99.90;;;;;;5031020;28;20471;-67
2023/04/10 08:04:42;;;;;;;24.90;19.70;;;9.70;99.90;;;;;;5017998;28;20533;-68
2023/04/10 08:07:10;;;;;;;23.23;19.90;;;9.80;99.90;;;;;;5027902;28;20466;-68
2023/04/10 08:09:38;;;;;;;22.20;18.70;;;10.00;99.90;;;;;;5024194;28;20495;-68
2023/04/10 08:12:06;;;;;;;23.37;19.67;;;10.10;99.90;;;;;;5027447;28;20471;-68
2023/04/10 08:14:34;;;;;;;21.90;18.20;;;10.10;99.90;;;;;;5028263;28;20541;-69
2023/04/10 08:17:02;;;;;;;22.00;19.70;;;10.20;99.90;;;;;;5022413;28;20475;-68
2023/04/10 08:19:31;;;;;;;20.93;18.57;;;10.30;99.90;;;;;;5029123;28;20483;-69
2023/04/10 08:22:00;;;;;;;21.27;18.47;;;10.40;99.90;;;;;;5031831;28;20992;-68
2023/04/10 08:24:28;;;;;;;20.90;18.67;;;10.50;99.90;;;;;;5023164;28;20478;-67
2023/04/10 08:26:56;;;;;;;21.57;19.27;;;10.60;99.90;;;;;;5022023;28;20467;-69
2023/04/10 08:29:24;;;;;;;22.70;20.20;;;10.80;99.90;;;;;;5028011;28;20487;-68
2023/04/10 08:31:53;;;;;;;20.90;18.50;;;10.90;99.90;;;;;;5030225;28;20514;-69
2023/04/10 08:34:23;;;;;;;20.50;18.30;;;11.00;99.90;;;;;;5017765;28;20487;-69
2023/04/10 08:36:51;;;;;;;21.83;18.20;;;11.10;99.90;;;;;;5029456;28;20546;-68
2023/04/10 08:39:20;;;;;;;20.90;18.60;;;11.20;99.90;;;;;;5029703;28;20487;-69
2023/04/10 08:41:48;;;;;;;21.10;18.90;;;11.30;99.90;;;;;;5023809;28;20471;-68
2023/04/10 08:44:16;;;;;;;22.37;19.00;;;11.30;99.90;;;;;;5023220;28;20476;-68
2023/04/10 08:46:45;;;;;;;20.77;18.57;;;11.40;99.90;;;;;;5049565;28;20535;-69
2023/04/10 08:49:17;;;;;;;21.50;19.20;;;11.50;99.90;;;;;;5045159;28;20510;-68
2023/04/10 08:51:51;;;;;;;19.73;17.53;;;11.60;99.90;;;;;;5022883;28;20472;-68
2023/04/10 08:54:25;;;;;;;19.27;17.27;;;11.70;99.90;;;;;;5028756;28;20489;-67
2023/04/10 08:56:57;;;;;;;20.80;18.53;;;11.80;99.90;;;;;;5029251;28;20471;-68
2023/04/10 08:59:25;;;;;;;21.30;19.10;;;11.90;99.90;;;;;;5018587;28;20505;-70
2023/04/10 09:01:54;;;;;;;19.83;17.70;;;12.00;99.90;;;;;;5027954;28;20472;-69
2023/04/10 09:04:22;;;;;;;19.03;17.17;;;12.10;99.90;;;;;;5024294;28;20479;-69
2023/04/10 09:06:51;;;;;;;20.03;17.93;;;12.20;99.90;;;;;;5028940;28;20490;-69
2023/04/10 09:09:21;;;;;;;20.30;18.10;;;12.20;99.90;;;;;;5030852;28;20486;-69
2023/04/10 09:12:03;;;;;;;19.53;17.53;;;12.30;99.90;;;;;;5020537;28;20478;-66
2023/04/10 09:14:32;;;;;;;18.33;16.53;;;12.40;99.90;;;;;;5027927;28;20519;-69
2023/04/10 09:17:19;;;;;;;17.53;15.80;;;12.50;99.90;;;;;;5029157;28;20482;-67
2023/04/10 09:19:48;;;;;;;17.20;15.50;;;12.60;99.90;;;;;;5023678;28;20491;-67
2023/04/10 09:22:16;;;;;;;16.20;14.60;;;12.70;99.90;;;;;;5031265;28;20472;-67
2023/04/10 09:24:47;;;;;;;16.40;14.67;;;12.80;99.90;;;;;;5020884;28;20476;-68
2023/04/10 09:27:29;;;;;;;16.63;14.93;;;12.90;99.90;;;;;;5026651;28;20554;-68
2023/04/10 09:29:58;;;;;;;17.17;15.50;;;13.10;99.90;;;;;;5044013;28;20502;-69
2023/04/10 09:32:41;;;;;;;15.97;14.37;;;13.20;99.90;;;;;;5044695;28;20456;-69
2023/04/10 09:35:10;;;;;;;17.23;15.43;;;13.30;99.90;;;;;;5048624;28;20493;-68
2023/04/10 09:37:40;;;;;;;16.53;14.93;;;13.40;99.90;;;;;;5026680;28;20837;-68
2023/04/10 09:40:20;;;;;;;17.37;15.57;;;13.50;99.90;;;;;;5023900;28;20507;-68
2023/04/10 09:42:48;;;;;;;17.07;15.37;;;13.60;99.90;;;;;;5027811;28;20550;-68
2023/04/10 09:45:18;;;;;;;17.30;15.50;;;13.70;99.90;;;;;;5021382;28;21001;-67
2023/04/10 09:48:02;;;;;;;17.33;15.53;;;13.80;99.90;;;;;;5027387;28;20499;-68
2023/04/10 09:50:35;;;;;;;16.93;15.33;;;14.00;99.90;;;;;;5025884;28;20491;-69
2023/04/10 09:53:07;;;;;;;15.13;13.67;;;14.10;99.90;;;;;;5021729;28;20466;-69
2023/04/10 09:55:37;;;;;;;15.77;14.17;;;14.30;99.90;;;;;;5024461;28;20544;-68
2023/04/10 09:58:06;;;;;;;15.87;14.37;;;14.40;99.90;;;;;;5019398;28;20491;-69
2023/04/10 10:00:39;;;;;;;16.40;14.80;;;14.50;99.90;;;;;;5026984;28;20490;-69
2023/04/10 10:03:10;;;;;;;15.93;14.47;;;14.60;99.90;;;;;;5026584;28;20987;-68
2023/04/10 10:05:41;;;;;;;15.60;14.13;;;14.70;99.90;;;;;;5018021;28;20467;-67
2023/04/10 10:08:11;;;;;;;13.40;12.10;;;14.80;99.90;;;;;;5026836;28;20478;-69
2023/04/10 10:10:45;;;;;;;12.47;11.27;;;14.90;99.90;;;;;;5022650;28;20608;-70
2023/04/10 10:13:18;;;;;;;12.10;11.00;;;15.00;99.90;;;;;;5020927;28;20553;-68
2023/04/10 10:15:54;;;;;;;12.03;11.00;;;15.00;99.90;;;;;;5027949;28;20888;-68
2023/04/10 10:18:29;;;;;;;12.27;11.10;;;15.20;99.90;;;;;;5018974;28;20486;-68
2023/04/10 10:20:59;;;;;;;12.03;10.80;;;15.20;99.90;;;;;;5022933;28;20501;-68
2023/04/10 10:23:28;;;;;;;11.40;10.30;;;15.30;99.90;;;;;;5027702;28;20471;-68
2023/04/10 10:25:59;;;;;;;10.50;9.60;;;15.30;99.90;;;;;;5014565;28;20467;-68
2023/04/10 10:28:32;;;;;;;11.40;10.33;;;15.40;99.90;;;;;;5025581;28;20495;-67
2023/04/10 10:31:02;;;;;;;11.77;10.67;;;15.50;99.90;;;;;;5020660;28;20495;-67
2023/04/10 10:33:30;;;;;;;11.83;10.83;;;15.70;99.90;;;;;;5023762;28;20486;-68
2023/04/10 10:36:00;;;;;;;11.60;10.60;;;15.80;99.90;;;;;;5025378;28;20505;-69
2023/04/10 10:38:29;;;;;;;11.43;10.33;;;15.90;99.90;;;;;;5016477;28;21050;-69
2023/04/10 10:41:06;;;;;;;12.00;10.90;;;16.10;99.90;;;;;;5023897;28;20495;-68
2023/04/10 10:43:47;;;;;;;11.10;10.10;;;16.20;99.40;;;;;;5022890;28;20466;-69
2023/04/10 10:46:23;;;;;;;10.43;9.53;;;16.30;99.90;;;;;;5023465;28;20469;-68
2023/04/10 10:48:57;;;;;;;10.03;9.13;;;16.50;93.20;;;;;;5025627;28;20487;-67
2023/04/10 10:51:43;;;;;;;9.37;8.57;;;16.60;93.70;;;;;;5017226;28;20470;-68
2023/04/10 10:54:30;;;;;;;9.77;8.90;;;16.70;92.30;;;;;;5024076;28;20494;-68
2023/04/10 10:57:00;;;;;;;12.00;9.87;;;16.80;91.30;;;;;;5020464;28;21262;-69
2023/04/10 10:59:53;;;;;;;10.00;9.10;;;16.80;82.10;;;;;;5021348;28;20502;-70
2023/04/10 11:02:21;;;;;;;10.40;9.50;;;16.80;82.00;;;;;;5026395;28;20848;-68
2023/04/10 11:04:50;;;;;;;9.90;9.10;;;16.80;84.40;;;;;;5015519;28;20556;-69
2023/04/10 11:07:18;;;;;;;10.13;9.13;;;16.90;90.00;;;;;;5025624;28;20471;-67
2023/04/10 11:09:48;;;;;;;9.70;8.90;;;17.00;84.20;;;;;;5021670;28;20487;-68
2023/04/10 11:12:19;;;;;;;9.83;8.90;;;17.10;93.20;;;;;;5016904;28;20471;-69
2023/04/10 11:14:58;;;;;;;10.40;9.50;;;17.10;77.10;;;;;;5021765;28;20459;-69
2023/04/10 11:17:49;;;;;;;8.80;8.10;;;17.20;74.00;;;;;;5017133;28;20494;-67
2023/04/10 11:20:20;;;;;;;8.33;7.70;;;17.30;76.30;;;;;;5024122;28;20486;-67
2023/04/10 11:23:08;;;;;;;9.17;8.40;;;17.40;71.30;;;;;;5023910;28;20467;-69
2023/04/10 11:25:50;;;;;;;8.10;7.40;;;17.40;65.00;;;;;;5020934;28;20993;-67
2023/04/10 11:28:39;;;;;;;8.37;7.67;;;17.50;63.90;;;;;;5028730;28;20553;-67
2023/04/10 11:31:18;;;;;;;8.73;7.50;;;17.60;73.70;;;;;;5019936;28;20494;-69
2023/04/10 11:33:48;;;;;;;8.17;7.47;;;17.70;61.70;;;;;;5028590;28;20473;-70
2023/04/10 11:36:17;;;;;;;8.70;8.00;;;17.90;58.70;;;;;;5030177;28;20942;-68
2023/04/10 11:38:55;;;;;;;9.90;9.00;;;17.80;55.60;;;;;;5019433;28;20487;-68
2023/04/10 11:41:29;;;;;;;8.70;8.00;;;17.90;61.60;;;;;;5024507;28;20506;-68
2023/04/10 11:43:59;;;;;;;8.23;7.53;;;18.10;57.70;;;;;;5028563;28;20475;-68
2023/04/10 11:46:28;;;;;;;7.80;7.20;;;18.30;53.80;;;;;;5028178;28;20470;-69
2023/04/10 11:48:59;;;;;;;8.67;7.77;;;18.40;55.40;;;;;;5024459;28;21049;-68
2023/04/10 11:51:28;;;;;;;8.00;7.27;;;18.60;55.80;;;;;;5028665;28;20471;-68
2023/04/10 11:54:07;;;;;;;9.83;7.77;;;18.80;53.20;;;;;;5027432;28;20820;-68
2023/04/10 11:56:36;;;;;;;8.20;7.50;;;19.00;49.70;;;;;;5030385;28;20488;-68
2023/04/10 11:59:09;;;;;;;6.33;5.83;;;19.00;47.70;;;;;;5030195;28;20486;-69
2023/04/10 12:01:37;;;;;;;6.40;5.90;;;19.00;46.50;;;;;;5029233;28;21008;-68
2023/04/10 12:04:15;;;;;;;7.97;7.17;;;19.00;48.70;;;;;;5029131;28;20466;-68
2023/04/10 12:06:45;;;;;;;7.23;6.63;;;19.20;46.70;;;;;;5029343;28;20991;-68
2023/04/10 12:09:16;;;;;;;6.80;6.30;;;19.30;46.60;;;;;;4998164;28;20483;-67
2023/04/10 12:11:50;;;;;;;7.33;6.73;;;19.50;46.10;;;;;;4994598;28;20569;-65
2023/04/10 12:14:20;;;;;;;7.30;6.70;;;19.60;44.00;;;;;;5012689;28;20470;-66
2023/04/10 12:16:50;;;;;;;7.27;6.73;;;19.70;44.40;;;;;;5006859;28;20572;-65
2023/04/10 12:19:19;;;;;;;7.63;6.83;;;19.80;43.40;;;;;;5007993;28;21056;-66
2023/04/10 12:21:48;;;;;;;7.20;6.70;;;19.90;42.90;;;;;;5013323;28;20488;-65
2023/04/10 12:24:44;;;;;;;8.47;6.60;;;19.90;42.70;;;;;;5020015;28;20471;-64
2023/04/10 12:27:19;;;;;;;7.40;6.70;;;19.80;42.50;;;;;;5016199;28;20471;-65
2023/04/10 12:29:50;;;;;;;7.17;6.57;;;19.80;43.20;;;;;;5019084;28;20496;-65
2023/04/10 12:32:19;;;;;;;7.23;6.60;;;19.80;42.70;;;;;;5016992;28;20606;-65
2023/04/10 12:34:50;;;;;;;7.37;6.80;;;19.90;42.60;;;;;;5020967;28;20486;-65
2023/04/10 12:37:18;;;;;;;7.83;7.10;;;20.00;42.20;;;;;;5019981;28;20549;-67
2023/04/10 12:39:46;;;;;;;7.30;6.60;;;20.00;42.60;;;;;;5024700;28;20574;-67
2023/04/10 12:42:16;;;;;;;7.60;6.90;;;20.00;42.90;;;;;;5024701;28;20478;-66
2023/04/10 12:44:56;;;;;;;8.00;7.30;;;20.10;41.20;;;;;;5021963;28;20479;-66
2023/04/10 12:47:25;;;;;;;6.60;6.10;;;20.00;40.70;;;;;;5022928;28;21039;-66
2023/04/10 12:50:04;;;;;;;6.87;6.37;;;20.00;42.30;;;;;;5023441;28;20498;-65
2023/04/10 12:52:32;;;;;;;7.33;6.80;;;20.00;42.10;;;;;;5027053;28;20553;-65